createdAt,value
2023-09-28T00:01:18.965Z,8.90
2023-09-28T00:03:46.606Z,7.30
2023-09-28T00:06:13.640Z,8.85
2023-09-28T00:08:40.371Z,8.75
2023-09-28T00:11:07.159Z,9.05
2023-09-28T00:13:33.807Z,7.65
2023-09-28T00:16:00.426Z,7.15
2023-09-28T00:18:27.078Z,8.95
2023-09-28T00:20:53.812Z,7.55
2023-09-28T00:23:20.537Z,9.77
2023-09-28T00:25:48.103Z,9.35
2023-09-28T00:28:14.843Z,10.23
2023-09-28T00:30:43.497Z,5.80
2023-09-28T00:33:10.243Z,8.57
2023-09-28T00:35:37.374Z,6.65
2023-09-28T00:38:04.399Z,8.02
2023-09-28T00:40:34.046Z,8.25
2023-09-28T00:43:02.831Z,10.70
2023-09-28T00:45:29.982Z,8.43
2023-09-28T00:48:06.312Z,12.40
2023-09-28T00:50:33.659Z,8.60
2023-09-28T00:53:03.487Z,10.68
2023-09-28T00:55:31.935Z,9.88
2023-09-28T00:58:01.472Z,9.93
2023-09-28T01:00:30.564Z,11.10
2023-09-28T01:02:58.853Z,8.98
2023-09-28T01:05:28.008Z,7.82
2023-09-28T01:07:56.678Z,10.30
2023-09-28T01:10:26.439Z,9.90
2023-09-28T01:12:53.069Z,10.00
2023-09-28T01:15:20.497Z,10.30
2023-09-28T01:17:47.195Z,12.50
2023-09-28T01:20:20.440Z,15.50
2023-09-28T01:22:49.942Z,10.63
2023-09-28T01:25:22.524Z,11.63
2023-09-28T01:27:50.819Z,12.27
2023-09-28T01:30:17.487Z,11.23
2023-09-28T01:32:44.380Z,10.15
2023-09-28T01:35:14.140Z,13.07
2023-09-28T01:38:06.451Z,11.98
2023-09-28T01:40:33.168Z,13.20
2023-09-28T01:42:59.760Z,12.07
2023-09-28T01:45:26.438Z,12.80
2023-09-28T01:47:53.234Z,10.15
2023-09-28T01:50:19.913Z,9.82
2023-09-28T01:52:46.880Z,11.50
2023-09-28T01:55:13.542Z,11.65
2023-09-28T01:57:40.229Z,10.90
2023-09-28T02:00:19.664Z,10.77
2023-09-28T02:02:47.722Z,12.18
2023-09-28T02:05:19.161Z,13.80
2023-09-28T02:07:46.610Z,11.45
2023-09-28T02:10:13.793Z,11.82
2023-09-28T02:12:41.255Z,13.38
2023-09-28T02:15:10.416Z,10.35
2023-09-28T02:17:38.156Z,10.98
2023-09-28T02:20:12.056Z,10.98
2023-09-28T02:22:44.595Z,9.27
2023-09-28T02:25:16.763Z,12.63
2023-09-28T02:27:43.744Z,13.27
2023-09-28T02:30:16.090Z,12.00
2023-09-28T02:32:49.464Z,13.13
2023-09-28T02:35:18.257Z,11.73
2023-09-28T02:37:47.244Z,12.40
2023-09-28T02:40:16.117Z,13.93
2023-09-28T02:42:44.057Z,13.73
2023-09-28T02:45:14.368Z,11.90
2023-09-28T02:47:42.862Z,12.18
2023-09-28T02:50:11.183Z,13.77
2023-09-28T02:52:39.681Z,11.57
2023-09-28T02:55:08.765Z,11.30
2023-09-28T02:57:36.717Z,13.77
2023-09-28T03:00:14.226Z,13.43
2023-09-28T03:02:40.892Z,11.63
2023-09-28T03:05:08.564Z,13.05
2023-09-28T03:07:35.592Z,13.30
2023-09-28T03:10:05.613Z,11.77
2023-09-28T03:12:32.218Z,12.85
2023-09-28T03:14:58.892Z,11.50
2023-09-28T03:17:25.569Z,13.70
2023-09-28T03:19:52.332Z,15.95
2023-09-28T03:22:20.805Z,16.60
2023-09-28T03:24:47.948Z,14.90
2023-09-28T03:27:14.528Z,18.25
2023-09-28T03:29:42.995Z,13.77
2023-09-28T03:32:09.908Z,13.30
2023-09-28T03:34:38.082Z,17.00
2023-09-28T03:37:05.596Z,14.70
2023-09-28T03:39:32.355Z,16.20
2023-09-28T03:41:58.934Z,14.52
2023-09-28T03:44:25.880Z,12.57
2023-09-28T03:46:52.756Z,15.18
2023-09-28T03:49:19.427Z,14.57
2023-09-28T03:51:46.103Z,21.00
2023-09-28T03:54:12.799Z,15.52
2023-09-28T03:56:39.992Z,17.67
2023-09-28T03:59:07.458Z,15.40
2023-09-28T04:01:34.967Z,15.95
2023-09-28T04:04:01.669Z,19.00
2023-09-28T04:06:28.274Z,13.73
2023-09-28T04:08:54.971Z,15.40
2023-09-28T04:11:21.824Z,15.50
2023-09-28T04:13:48.464Z,16.00
2023-09-28T04:16:15.693Z,16.38
2023-09-28T04:18:42.302Z,16.85
2023-09-28T04:21:09.119Z,17.90
2023-09-28T04:23:35.765Z,16.45
2023-09-28T04:26:02.364Z,13.50
2023-09-28T04:28:29.020Z,15.68
2023-09-28T04:30:55.651Z,15.10
2023-09-28T04:33:22.340Z,15.25
2023-09-28T04:35:50.770Z,16.15
2023-09-28T04:38:18.024Z,20.67
2023-09-28T04:40:44.729Z,13.60
2023-09-28T04:43:11.367Z,13.60
2023-09-28T04:45:39.340Z,12.57
2023-09-28T04:48:06.209Z,18.58
2023-09-28T04:50:32.894Z,16.25
2023-09-28T04:52:59.906Z,17.00
2023-09-28T04:55:26.606Z,14.32
2023-09-28T04:57:54.285Z,18.95
2023-09-28T05:00:21.279Z,16.50
2023-09-28T05:02:48.687Z,13.48
2023-09-28T05:05:16.322Z,11.95
2023-09-28T05:07:43.897Z,11.65
2023-09-28T05:10:10.668Z,12.80
2023-09-28T05:12:37.279Z,14.98
2023-09-28T05:15:04.705Z,13.70
2023-09-28T05:17:33.167Z,17.25
2023-09-28T05:20:00.034Z,16.55
2023-09-28T05:22:27.468Z,16.80
2023-09-28T05:24:54.928Z,17.23
2023-09-28T05:27:21.953Z,15.27
2023-09-28T05:29:48.557Z,17.15
2023-09-28T05:32:15.235Z,13.95
2023-09-28T05:34:41.926Z,12.73
2023-09-28T05:37:08.510Z,14.98
2023-09-28T05:39:35.118Z,16.92
2023-09-28T05:42:02.814Z,14.50
2023-09-28T05:44:30.626Z,13.10
2023-09-28T05:46:57.556Z,17.23
2023-09-28T05:49:24.340Z,12.50
2023-09-28T05:51:51.075Z,19.27
2023-09-28T05:54:17.814Z,15.15
2023-09-28T05:56:45.692Z,15.57
2023-09-28T05:59:12.307Z,16.08
2023-09-28T06:01:39.001Z,14.18
2023-09-28T06:04:07.021Z,14.20
2023-09-28T06:06:33.678Z,13.63
2023-09-28T06:09:00.337Z,16.73
2023-09-28T06:11:27.118Z,15.85
2023-09-28T06:16:26.726Z,17.45
2023-09-28T06:18:55.261Z,12.52
2023-09-28T06:21:22.018Z,16.55
2023-09-28T06:23:49.332Z,14.73
2023-09-28T06:26:26.039Z,13.65
2023-09-28T06:29:02.204Z,13.80
2023-09-28T06:31:29.097Z,16.13
2023-09-28T06:33:55.789Z,13.73
2023-09-28T06:36:39.863Z,14.48
2023-09-28T06:39:09.612Z,14.70
2023-09-28T06:41:36.221Z,15.82
2023-09-28T06:44:03.065Z,14.90
2023-09-28T06:46:29.969Z,12.88
2023-09-28T06:48:56.984Z,13.05
2023-09-28T06:51:23.838Z,14.57
2023-09-28T06:53:50.620Z,13.13
2023-09-28T06:56:17.658Z,13.57
2023-09-28T06:58:44.603Z,15.05
2023-09-28T07:01:11.580Z,9.82
2023-09-28T07:03:38.307Z,11.48
2023-09-28T07:06:06.699Z,12.43
2023-09-28T07:08:33.609Z,10.73
2023-09-28T07:11:00.544Z,10.57
2023-09-28T07:13:28.083Z,11.45
2023-09-28T07:15:58.314Z,12.63
2023-09-28T07:18:26.885Z,11.43
2023-09-28T07:20:53.758Z,10.70
2023-09-28T07:23:20.439Z,11.23
2023-09-28T07:25:47.166Z,13.70
2023-09-28T07:28:13.780Z,10.48
2023-09-28T07:30:40.402Z,8.80
2023-09-28T07:33:08.289Z,10.50
2023-09-28T07:35:35.165Z,11.20
2023-09-28T07:38:01.955Z,10.43
2023-09-28T07:40:36.551Z,12.70
2023-09-28T07:43:13.344Z,14.13
2023-09-28T07:45:41.890Z,10.57
2023-09-28T07:48:08.746Z,11.60
2023-09-28T07:50:35.502Z,13.27
2023-09-28T07:53:02.212Z,15.85
2023-09-28T07:55:28.928Z,11.30
2023-09-28T07:58:02.307Z,14.70
2023-09-28T08:00:35.126Z,15.77
2023-09-28T08:03:01.867Z,9.93
2023-09-28T08:05:28.676Z,13.65
2023-09-28T08:08:10.242Z,11.52
2023-09-28T08:10:41.135Z,10.52
2023-09-28T08:13:07.803Z,11.93
2023-09-28T08:15:37.204Z,12.15
2023-09-28T08:18:04.757Z,12.23
2023-09-28T08:20:34.939Z,10.15
2023-09-28T08:23:04.742Z,10.20
2023-09-28T08:25:32.205Z,11.07
2023-09-28T08:27:58.940Z,10.93
2023-09-28T08:30:25.575Z,9.85
2023-09-28T08:32:55.204Z,12.25
2023-09-28T08:35:22.285Z,8.70
2023-09-28T08:37:49.122Z,10.50
2023-09-28T08:40:15.838Z,9.55
2023-09-28T08:42:46.895Z,10.82
2023-09-28T08:45:17.212Z,9.38
2023-09-28T08:47:49.685Z,10.35
2023-09-28T08:50:22.770Z,9.82
2023-09-28T08:52:51.783Z,11.38
2023-09-28T08:55:22.100Z,9.60
2023-09-28T08:57:49.398Z,8.02
2023-09-28T09:00:16.806Z,13.18
2023-09-28T09:02:44.650Z,8.60
2023-09-28T09:05:14.594Z,8.90
2023-09-28T09:07:45.005Z,12.48
2023-09-28T09:10:14.081Z,9.05
2023-09-28T09:12:40.828Z,10.07
2023-09-28T09:15:08.220Z,11.30
2023-09-28T09:17:36.503Z,11.32
2023-09-28T09:20:06.521Z,10.02
2023-09-28T09:22:44.849Z,7.40
2023-09-28T09:25:13.326Z,9.70
2023-09-28T09:27:39.911Z,10.20
2023-09-28T09:30:09.152Z,12.05
2023-09-28T09:32:39.127Z,10.13
2023-09-28T09:35:08.271Z,11.93
2023-09-28T09:37:35.192Z,8.80
2023-09-28T09:40:13.518Z,6.50
2023-09-28T09:42:40.341Z,13.18
2023-09-28T09:45:08.412Z,7.18
2023-09-28T09:47:35.777Z,8.18
2023-09-28T09:50:03.455Z,7.95
2023-09-28T09:52:31.558Z,12.07
2023-09-28T09:54:58.242Z,8.18
2023-09-28T09:57:25.322Z,7.95
2023-09-28T09:59:54.514Z,8.38
2023-09-28T10:02:26.507Z,8.20
2023-09-28T10:04:57.528Z,6.25
2023-09-28T10:07:45.364Z,8.20
2023-09-28T10:10:15.537Z,8.50
2023-09-28T10:12:42.433Z,7.93
2023-09-28T10:15:10.676Z,9.85
2023-09-28T10:17:37.909Z,8.27
2023-09-28T10:20:08.174Z,8.05
2023-09-28T10:22:35.390Z,8.23
2023-09-28T10:25:01.992Z,6.28
2023-09-28T10:27:30.699Z,8.00
2023-09-28T10:30:19.986Z,8.00
2023-09-28T10:32:47.585Z,9.02
2023-09-28T10:35:29.680Z,9.13
2023-09-28T10:38:17.069Z,6.75
2023-09-28T10:40:50.888Z,7.13
2023-09-28T10:43:31.093Z,8.75
2023-09-28T10:46:08.300Z,7.35
2023-09-28T10:48:46.357Z,8.40
2023-09-28T10:51:16.532Z,6.03
2023-09-28T10:53:44.326Z,9.70
2023-09-28T10:56:11.862Z,7.47
2023-09-28T10:58:39.994Z,6.85
2023-09-28T11:01:07.797Z,8.32
2023-09-28T11:03:36.665Z,8.73
2023-09-28T11:06:06.003Z,8.60
2023-09-28T11:08:33.793Z,7.88
2023-09-28T11:11:03.111Z,10.20
2023-09-28T11:13:31.069Z,6.97
2023-09-28T11:15:58.825Z,5.93
2023-09-28T11:18:29.627Z,7.63
2023-09-28T11:21:00.681Z,6.38
2023-09-28T11:23:28.841Z,8.68
2023-09-28T11:25:56.481Z,10.07
2023-09-28T11:28:24.660Z,10.98
2023-09-28T11:31:09.627Z,10.55
2023-09-28T11:33:40.320Z,10.07
2023-09-28T11:36:24.122Z,10.73
2023-09-28T11:38:53.719Z,7.97
2023-09-28T11:41:22.351Z,10.45
2023-09-28T11:43:59.095Z,9.00
2023-09-28T11:46:32.460Z,10.68
2023-09-28T11:49:06.093Z,9.63
2023-09-28T11:51:37.358Z,6.85
2023-09-28T11:54:08.287Z,6.60
2023-09-28T11:56:35.637Z,10.25
2023-09-28T11:59:02.359Z,6.57
2023-09-28T12:01:29.836Z,7.60
2023-09-28T12:03:58.559Z,5.72
2023-09-28T12:06:25.749Z,6.95
2023-09-28T12:08:52.657Z,10.32
2023-09-28T12:11:19.388Z,7.38
2023-09-28T12:13:47.738Z,8.48
2023-09-28T12:16:14.569Z,8.27
2023-09-28T12:18:41.292Z,6.72
2023-09-28T12:21:08.266Z,7.70
2023-09-28T12:23:34.904Z,6.78
2023-09-28T12:26:02.852Z,11.68
2023-09-28T12:28:29.802Z,6.70
2023-09-28T12:30:57.617Z,7.22
2023-09-28T12:33:24.674Z,7.25
2023-09-28T12:35:51.453Z,11.05
2023-09-28T12:38:18.735Z,12.00
2023-09-28T12:40:47.947Z,7.78
2023-09-28T12:43:14.512Z,7.80
2023-09-28T12:45:42.951Z,8.43
2023-09-28T12:48:11.176Z,7.55
2023-09-28T12:50:38.335Z,9.70
2023-09-28T12:53:05.310Z,7.10
2023-09-28T12:55:32.019Z,11.55
2023-09-28T12:57:58.820Z,6.28
2023-09-28T13:00:26.344Z,7.50
2023-09-28T13:02:53.929Z,7.35
2023-09-28T13:05:21.006Z,6.47
2023-09-28T13:07:48.515Z,7.63
2023-09-28T13:10:23.150Z,9.70
2023-09-28T13:12:52.583Z,7.78
2023-09-28T13:15:19.304Z,7.28
2023-09-28T13:17:46.240Z,13.20
2023-09-28T13:20:25.554Z,9.70
2023-09-28T13:22:54.965Z,10.93
2023-09-28T13:25:24.100Z,7.38
2023-09-28T13:27:54.435Z,7.75
2023-09-28T13:30:24.095Z,10.00
2023-09-28T13:32:52.597Z,10.35
2023-09-28T13:35:20.899Z,9.40
2023-09-28T13:37:48.041Z,12.15
2023-09-28T13:40:23.465Z,6.95
2023-09-28T13:42:52.084Z,6.13
2023-09-28T13:45:18.985Z,8.05
2023-09-28T13:47:46.557Z,15.80
2023-09-28T13:50:13.529Z,8.45
2023-09-28T13:52:40.345Z,9.82
2023-09-28T13:55:08.026Z,8.57
2023-09-28T13:57:35.094Z,10.18
2023-09-28T14:00:04.117Z,8.65
2023-09-28T14:02:30.932Z,8.15
2023-09-28T14:04:57.587Z,12.00
2023-09-28T14:07:24.230Z,8.32
2023-09-28T14:09:52.373Z,11.05
2023-09-28T14:12:20.139Z,10.55
2023-09-28T14:14:46.722Z,11.25
2023-09-28T14:17:21.769Z,10.15
2023-09-28T14:19:58.892Z,11.07
2023-09-28T14:22:25.605Z,11.52
2023-09-28T14:24:52.162Z,12.80
2023-09-28T14:27:18.794Z,9.35
2023-09-28T14:29:45.468Z,8.88
2023-09-28T14:32:12.156Z,10.90
2023-09-28T14:34:38.773Z,10.02
2023-09-28T14:37:05.496Z,13.55
2023-09-28T14:39:32.170Z,10.95
2023-09-28T14:41:58.954Z,8.65
2023-09-28T14:44:25.854Z,11.63
2023-09-28T14:46:52.921Z,7.90
2023-09-28T14:49:19.688Z,9.52
2023-09-28T14:51:46.379Z,10.63
2023-09-28T14:54:13.016Z,7.93
2023-09-28T14:56:39.728Z,8.63
2023-09-28T14:59:06.456Z,15.55
2023-09-28T15:01:33.730Z,9.45
2023-09-28T15:04:01.247Z,24.75
2023-09-28T15:06:27.950Z,35.15
2023-09-28T15:08:54.543Z,15.95
2023-09-28T15:11:22.042Z,40.42
2023-09-28T15:13:48.996Z,25.77
2023-09-28T15:16:16.039Z,14.68
2023-09-28T15:18:42.918Z,10.23
2023-09-28T15:21:11.477Z,9.60
2023-09-28T15:23:38.331Z,7.65
2023-09-28T15:26:05.589Z,8.85
2023-09-28T15:28:32.881Z,8.80
2023-09-28T15:30:59.850Z,9.43
2023-09-28T15:33:26.629Z,9.02
2023-09-28T15:35:57.566Z,17.05
2023-09-28T15:38:26.245Z,14.13
2023-09-28T15:40:52.862Z,12.93
2023-09-28T15:43:19.489Z,21.50
2023-09-28T15:45:47.316Z,54.65
2023-09-28T15:48:14.299Z,32.05
2023-09-28T15:50:41.496Z,20.30
2023-09-28T15:53:09.584Z,13.18
2023-09-28T15:55:36.286Z,9.90
2023-09-28T15:58:03.411Z,12.63
2023-09-28T16:00:37.974Z,13.75
2023-09-28T16:03:05.972Z,8.32
2023-09-28T16:05:33.087Z,10.95
2023-09-28T16:08:00.223Z,12.98
2023-09-28T16:10:27.289Z,12.82
2023-09-28T16:12:54.057Z,7.88
2023-09-28T16:15:20.928Z,7.35
2023-09-28T16:17:47.754Z,11.25
2023-09-28T16:20:14.669Z,9.85
2023-09-28T16:22:41.383Z,15.35
2023-09-28T16:25:09.001Z,7.97
2023-09-28T16:27:35.781Z,11.43
2023-09-28T16:30:02.516Z,13.10
2023-09-28T16:32:29.213Z,16.73
2023-09-28T16:34:55.894Z,10.82
2023-09-28T16:37:22.542Z,14.30
2023-09-28T16:39:49.228Z,12.55
2023-09-28T16:42:15.848Z,13.07
2023-09-28T16:44:42.655Z,16.48
2023-09-28T16:47:09.433Z,11.38
2023-09-28T16:49:36.105Z,12.35
2023-09-28T16:52:02.709Z,13.43
2023-09-28T16:54:29.335Z,13.63
2023-09-28T16:56:55.966Z,8.50
2023-09-28T16:59:22.652Z,9.35
2023-09-28T17:01:49.309Z,13.05
2023-09-28T17:04:16.117Z,8.43
2023-09-28T17:06:43.458Z,6.55
2023-09-28T17:09:10.648Z,9.77
2023-09-28T17:11:37.291Z,7.97
2023-09-28T17:14:04.066Z,6.82
2023-09-28T17:16:32.409Z,7.95
2023-09-28T17:18:59.814Z,12.55
2023-09-28T17:21:26.754Z,10.00
2023-09-28T17:23:53.480Z,7.70
2023-09-28T17:26:20.235Z,7.80
2023-09-28T17:28:47.009Z,10.25
2023-09-28T17:31:15.121Z,11.25
2023-09-28T17:33:42.068Z,9.95
2023-09-28T17:36:08.733Z,7.55
2023-09-28T17:38:35.960Z,8.68
2023-09-28T17:41:02.785Z,7.25
2023-09-28T17:43:29.450Z,12.95
2023-09-28T17:45:57.016Z,11.80
2023-09-28T17:48:23.711Z,7.57
2023-09-28T17:50:51.397Z,10.30
2023-09-28T17:53:19.192Z,12.52
2023-09-28T17:55:47.989Z,13.05
2023-09-28T17:58:18.246Z,11.77
2023-09-28T18:00:48.666Z,9.50
2023-09-28T18:03:15.425Z,9.45
2023-09-28T18:05:42.285Z,6.60
2023-09-28T18:08:08.989Z,7.82
2023-09-28T18:10:36.013Z,6.53
2023-09-28T18:13:05.224Z,8.35
2023-09-28T18:15:33.124Z,11.00
2023-09-28T18:17:59.866Z,6.88
2023-09-28T18:20:26.742Z,8.40
2023-09-28T18:22:53.906Z,12.68
2023-09-28T18:25:20.966Z,10.85
2023-09-28T18:27:48.028Z,12.50
2023-09-28T18:30:14.681Z,8.82
2023-09-28T18:32:41.697Z,12.27
2023-09-28T18:35:09.673Z,8.40
2023-09-28T18:37:36.322Z,6.45
2023-09-28T18:40:02.962Z,7.22
2023-09-28T18:42:29.536Z,7.72
2023-09-28T18:44:56.176Z,7.80
2023-09-28T18:47:22.819Z,11.70
2023-09-28T18:49:49.432Z,10.82
2023-09-28T18:52:16.175Z,8.98
2023-09-28T18:54:45.641Z,6.53
2023-09-28T18:57:12.301Z,8.50
2023-09-28T18:59:39.007Z,7.88
2023-09-28T19:02:05.861Z,5.93
2023-09-28T19:04:35.342Z,9.50
2023-09-28T19:07:02.723Z,11.35
2023-09-28T19:09:29.446Z,8.32
2023-09-28T19:11:56.253Z,8.45
2023-09-28T19:14:23.111Z,10.65
2023-09-28T19:16:51.923Z,12.70
2023-09-28T19:19:19.413Z,8.95
2023-09-28T19:21:46.163Z,8.40
2023-09-28T19:24:12.832Z,11.15
2023-09-28T19:26:39.591Z,12.10
2023-09-28T19:29:08.832Z,10.30
2023-09-28T19:31:37.033Z,15.77
2023-09-28T19:34:07.683Z,17.15
2023-09-28T19:36:35.438Z,11.60
2023-09-28T19:39:02.189Z,11.90
2023-09-28T19:41:29.573Z,10.07
2023-09-28T19:43:56.407Z,14.18
2023-09-28T19:46:24.534Z,9.32
2023-09-28T19:48:52.952Z,7.78
2023-09-28T19:51:21.120Z,8.40
2023-09-28T19:53:47.855Z,10.25
2023-09-28T19:56:26.175Z,9.73
2023-09-28T19:58:53.471Z,10.10
2023-09-28T20:01:21.455Z,8.82
2023-09-28T20:03:48.845Z,8.77
2023-09-28T20:06:16.221Z,11.73
2023-09-28T20:08:42.993Z,9.77
2023-09-28T20:11:09.637Z,9.23
2023-09-28T20:13:36.370Z,11.98
2023-09-28T20:16:06.024Z,9.15
2023-09-28T20:18:33.209Z,8.77
2023-09-28T20:21:04.199Z,9.45
2023-09-28T20:23:31.123Z,9.25
2023-09-28T20:25:58.025Z,11.85
2023-09-28T20:28:25.223Z,10.80
2023-09-28T20:30:51.973Z,8.88
2023-09-28T20:33:18.696Z,7.63
2023-09-28T20:35:46.659Z,8.05
2023-09-28T20:38:13.963Z,8.82
2023-09-28T20:40:40.839Z,8.55
2023-09-28T20:43:07.535Z,14.48
2023-09-28T20:45:41.264Z,10.07
2023-09-28T20:48:08.492Z,7.55
2023-09-28T20:50:35.644Z,8.50
2023-09-28T20:53:02.923Z,11.82
2023-09-28T20:55:31.033Z,10.07
2023-09-28T20:57:57.631Z,10.32
2023-09-28T21:00:25.106Z,8.10
2023-09-28T21:02:51.821Z,7.88
2023-09-28T21:05:18.639Z,8.35
2023-09-28T21:07:45.955Z,8.18
2023-09-28T21:10:13.550Z,9.18
2023-09-28T21:12:40.199Z,8.35
2023-09-28T21:15:10.445Z,7.35
2023-09-28T21:17:39.582Z,9.35
2023-09-28T21:20:08.465Z,9.75
2023-09-28T21:22:35.402Z,9.10
2023-09-28T21:25:03.119Z,10.95
2023-09-28T21:27:29.987Z,9.85
2023-09-28T21:29:56.714Z,9.77
2023-09-28T21:32:24.403Z,8.75
2023-09-28T21:34:52.858Z,12.20
2023-09-28T21:37:19.542Z,7.82
2023-09-28T21:39:46.174Z,8.68
2023-09-28T21:42:14.963Z,10.13
2023-09-28T21:44:41.637Z,10.15
2023-09-28T21:47:08.278Z,8.70
2023-09-28T21:49:34.880Z,9.75
2023-09-28T21:52:01.705Z,11.93
2023-09-28T21:54:28.444Z,12.20
2023-09-28T21:56:55.043Z,12.07
2023-09-28T21:59:21.784Z,11.23
2023-09-28T22:01:48.607Z,11.52
2023-09-28T22:04:15.287Z,10.02
2023-09-28T22:06:43.116Z,11.10
2023-09-28T22:09:11.174Z,10.25
2023-09-28T22:11:37.933Z,10.50
2023-09-28T22:14:04.912Z,14.30
2023-09-28T22:16:31.599Z,13.02
2023-09-28T22:18:58.266Z,10.35
2023-09-28T22:21:24.913Z,13.00
2023-09-28T22:23:51.550Z,10.77
2023-09-28T22:26:18.285Z,11.13
2023-09-28T22:28:44.976Z,11.23
2023-09-28T22:31:11.672Z,13.27
2023-09-28T22:33:38.331Z,10.93
2023-09-28T22:36:06.892Z,14.32
2023-09-28T22:38:33.941Z,17.70
2023-09-28T22:41:00.793Z,13.32
2023-09-28T22:43:27.381Z,12.85
2023-09-28T22:45:54.029Z,12.45
2023-09-28T22:48:20.749Z,17.20
2023-09-28T22:50:47.766Z,11.43
2023-09-28T22:53:14.417Z,17.25
2023-09-28T22:55:41.472Z,13.52
2023-09-28T22:58:08.067Z,11.63
2023-09-28T23:00:37.435Z,9.82
2023-09-28T23:03:05.335Z,10.75
2023-09-28T23:08:02.134Z,13.93
2023-09-28T23:10:29.875Z,10.70
2023-09-28T23:12:57.038Z,12.43
2023-09-28T23:15:23.991Z,11.52
2023-09-28T23:17:50.786Z,11.20
2023-09-28T23:20:23.635Z,9.85
2023-09-28T23:22:53.043Z,9.45
2023-09-28T23:25:20.123Z,11.05
2023-09-28T23:27:47.605Z,9.15
2023-09-28T23:30:18.766Z,13.20
2023-09-28T23:32:47.418Z,11.63
2023-09-28T23:35:17.723Z,10.27
2023-09-28T23:37:45.885Z,13.00
2023-09-28T23:40:17.210Z,10.48
2023-09-28T23:42:45.174Z,12.68
2023-09-28T23:45:13.099Z,11.15
2023-09-28T23:47:41.010Z,11.13
2023-09-28T23:50:10.418Z,10.43
2023-09-28T23:52:38.736Z,8.77
2023-09-28T23:55:16.880Z,9.73
2023-09-28T23:57:44.865Z,11.50
